Time;durP1;ratioP1;P1;durP2;ratioP2;P2;SDS_P1;SDS_P2;PMS_P1;PMS_P2;Temp;Humidity;BMP_temperature;BMP_pressure;BME280_temperature;BME280_humidity;BME280_pressure;Samples;Min_cycle;Max_cycle;Signal;HPM_P1;HPM_P2
2022/10/10 00:00:43;;;;;;;58.00;49.05;;;333.60;2329.60;;;;;;5095962;28;20081;-79
2022/10/10 00:03:09;;;;;;;60.25;47.70;;;333.70;2329.60;;;;;;5095586;28;20028;-79
2022/10/10 00:05:37;;;;;;;74.25;55.28;;;333.60;2329.60;;;;;;5095661;28;20037;-79
2022/10/10 00:08:04;;;;;;;68.05;48.63;;;333.50;2329.60;;;;;;5095530;28;20032;-79
2022/10/10 00:10:30;;;;;;;66.53;51.25;;;333.60;2329.60;;;;;;5095617;28;20109;-79
2022/10/10 00:12:56;;;;;;;58.78;47.47;;;333.50;2329.60;;;;;;5095339;28;20032;-79
2022/10/10 00:15:22;;;;;;;58.90;45.00;;;333.40;2329.60;;;;;;5096848;28;20021;-79
2022/10/10 00:17:48;;;;;;;54.85;45.30;;;333.40;2329.60;;;;;;5095030;28;20051;-79
2022/10/10 00:20:16;;;;;;;50.85;41.50;;;333.40;2329.60;;;;;;5096833;28;20032;-79
2022/10/10 00:22:42;;;;;;;50.85;44.35;;;333.30;2329.60;;;;;;5096462;28;20361;-79
2022/10/10 00:25:09;;;;;;;61.65;47.25;;;333.40;2329.60;;;;;;5096614;28;20059;-78
2022/10/10 00:27:36;;;;;;;67.38;52.55;;;333.40;2329.60;;;;;;5095137;28;20028;-79
2022/10/10 00:30:03;;;;;;;62.22;48.83;;;333.40;2329.60;;;;;;5096306;28;20032;-79
2022/10/10 00:32:29;;;;;;;64.75;50.22;;;333.40;2329.60;;;;;;5096516;28;20028;-79
2022/10/10 00:34:54;;;;;;;59.13;47.40;;;333.40;2329.60;;;;;;5096061;28;20096;-78
2022/10/10 00:37:20;;;;;;;50.50;42.58;;;333.40;2329.60;;;;;;5095017;28;20020;-78
2022/10/10 00:39:46;;;;;;;47.35;37.53;;;333.40;2329.60;;;;;;5095134;28;20031;-79
2022/10/10 00:42:13;;;;;;;43.03;34.70;;;333.40;2329.60;;;;;;5094694;28;20450;-79
2022/10/10 00:44:41;;;;;;;37.78;33.38;;;333.20;2329.60;;;;;;5094961;28;20028;-79
2022/10/10 00:47:07;;;;;;;41.35;32.00;;;333.20;2329.60;;;;;;5095032;28;20020;-79
2022/10/10 00:49:34;;;;;;;41.78;35.45;;;333.30;2329.60;;;;;;5094650;28;20027;-78
2022/10/10 00:52:00;;;;;;;39.72;33.75;;;333.00;2329.60;;;;;;5094702;28;20031;-77
2022/10/10 00:54:27;;;;;;;41.50;33.65;;;308.00;2304.00;;;;;;5094882;28;20383;-78
2022/10/10 00:56:53;;;;;;;36.42;32.28;;;332.90;2329.60;;;;;;5095594;28;20032;-78
2022/10/10 00:59:20;;;;;;;34.92;30.65;;;332.80;2329.60;;;;;;5096189;28;20031;-78
2022/10/10 01:01:46;;;;;;;40.58;33.47;;;332.80;2329.60;;;;;;5094539;28;20399;-78
2022/10/10 01:04:38;;;;;;;42.53;35.05;;;308.10;2304.00;;;;;;5094797;28;20047;-79
2022/10/10 01:07:17;;;;;;;43.95;33.75;;;308.00;2304.00;;;;;;5095701;28;20036;-78
2022/10/10 01:09:46;;;;;;;40.17;35.05;;;308.10;2304.00;;;;;;5090884;28;20028;-77
2022/10/10 01:12:48;;;;;;;40.13;34.30;;;308.10;2304.00;;;;;;5091101;28;20039;-78
2022/10/10 01:15:14;;;;;;;41.65;33.80;;;332.80;2329.60;;;;;;5072753;28;20132;-78
2022/10/10 01:17:58;;;;;;;42.00;34.60;;;332.80;2329.60;;;;;;5073622;28;20131;-79
2022/10/10 01:20:34;;;;;;;43.10;36.58;;;332.90;2329.60;;;;;;5075498;28;20039;-78
2022/10/10 01:23:50;;;;;;;43.03;32.95;;;308.10;2304.00;;;;;;5073521;28;20039;-78
2022/10/10 01:26:33;;;;;;;45.45;37.13;;;307.80;2304.00;;;;;;5064696;28;20044;-78
2022/10/10 01:29:08;;;;;;;46.40;38.45;;;308.00;2304.00;;;;;;5074162;28;20086;-79
2022/10/10 01:31:38;;;;;;;45.67;37.38;;;308.10;2304.00;;;;;;5073704;28;20032;-78
2022/10/10 01:34:28;;;;;;;45.35;38.58;;;308.10;2304.00;;;;;;5073745;28;20111;-78
2022/10/10 01:37:15;;;;;;;44.22;37.10;;;332.80;2329.60;;;;;;5073571;28;20024;-78
2022/10/10 01:39:58;;;;;;;46.03;37.88;;;308.10;2304.00;;;;;;5077003;28;20024;-78
2022/10/10 01:42:38;;;;;;;44.20;36.92;;;332.80;2329.60;;;;;;5093652;28;20024;-78
2022/10/10 01:45:05;;;;;;;36.88;31.73;;;308.10;2304.00;;;;;;5092791;28;20052;-78
2022/10/10 01:47:31;;;;;;;38.67;31.35;;;308.00;2304.00;;;;;;5100244;28;20023;-78
2022/10/10 01:50:04;;;;;;;36.58;30.23;;;307.90;2304.00;;;;;;5119821;28;20008;-78
2022/10/10 01:52:57;;;;;;;40.30;29.05;;;307.80;2304.00;;;;;;5119082;28;20012;-78
2022/10/10 01:56:01;;;;;;;37.15;31.48;;;307.60;2304.00;;;;;;5098393;28;20071;-79
2022/10/10 01:58:27;;;;;;;33.50;29.90;;;307.20;2304.00;;;;;;5055845;28;20037;-78
2022/10/10 02:00:53;;;;;;;36.03;30.25;;;;;;;;;;5088951;28;20189;-79
2022/10/10 02:03:23;;;;;;;35.17;31.38;;;;;;;;;;5093563;28;20115;-78
2022/10/10 02:05:52;;;;;;;40.95;30.55;;;;;;;;;;5093743;28;20468;-79
2022/10/10 02:08:22;;;;;;;37.83;32.03;;;;;;;;;;5093447;28;20182;-78
2022/10/10 02:10:51;;;;;;;35.08;29.65;;;;;;;;;;5093457;28;20022;-78
2022/10/10 02:13:18;;;;;;;38.08;31.98;;;;;;;;;;5093202;28;20110;-78
2022/10/10 02:15:55;;;;;;;37.72;30.77;;;;;;;;;;5093114;28;20078;-78
2022/10/10 02:18:22;;;;;;;40.58;30.50;;;;;;;;;;5093027;28;20135;-78
2022/10/10 02:20:50;;;;;;;39.63;32.45;;;;;;;;;;5094015;28;20486;-78
2022/10/10 02:23:17;;;;;;;41.63;32.00;;;;;;;;;;5093084;28;20028;-78
2022/10/10 02:25:45;;;;;;;42.70;32.95;;;;;;;;;;5093149;28;20070;-78
2022/10/10 02:28:11;;;;;;;40.65;32.95;;;;;;;;;;5094638;28;20028;-78
2022/10/10 02:30:39;;;;;;;42.72;33.42;;;;;;;;;;5092966;28;20020;-78
2022/10/10 02:33:06;;;;;;;40.67;33.08;;;;;;;;;;5092804;28;20559;-79
2022/10/10 02:35:35;;;;;;;39.95;33.22;;;;;;;;;;5092978;28;20486;-78
2022/10/10 02:38:03;;;;;;;40.75;34.22;;;;;;;;;;5092852;28;20081;-79
2022/10/10 02:40:31;;;;;;;45.58;36.55;;;;;;;;;;5094294;28;20080;-78
2022/10/10 02:42:59;;;;;;;42.78;36.65;;;;;;;;;;5092878;28;20027;-79
2022/10/10 02:45:27;;;;;;;43.90;33.75;;;;;;;;;;5092852;28;20111;-78
2022/10/10 02:47:54;;;;;;;47.90;34.95;;;;;;;;;;5092575;28;20079;-79
2022/10/10 02:50:20;;;;;;;47.05;34.35;;;;;;;;;;5092755;28;20093;-76
2022/10/10 02:52:46;;;;;;;43.90;33.47;;;;;;;;;;5092402;28;20383;-78
2022/10/10 02:55:13;;;;;;;51.85;36.35;;;;;;;;;;5092527;28;20024;-77
2022/10/10 02:57:39;;;;;;;52.55;37.78;;;;;;;;;;5092580;28;20020;-78
2022/10/10 03:00:06;;;;;;;54.97;38.33;;;;;;;;;;5093628;28;20024;-79
2022/10/10 03:02:32;;;;;;;51.90;35.67;;;;;;;;;;5092275;28;20052;-78
2022/10/10 03:04:58;;;;;;;64.32;39.63;;;;;;;;;;5092448;28;20081;-79
2022/10/10 03:07:24;;;;;;;66.45;38.35;;;;;;;;;;5092628;28;20024;-80
2022/10/10 03:09:51;;;;;;;50.38;34.55;;;;;;;;;;5092385;28;20099;-78
2022/10/10 03:12:17;;;;;;;55.95;35.92;;;;;;;;;;5093336;28;20069;-77
2022/10/10 03:14:43;;;;;;;52.88;36.05;;;;;;;;;;5096308;28;20028;-78
2022/10/10 03:17:09;;;;;;;58.42;36.17;;;;;;;;;;5096451;28;20020;-80
2022/10/10 03:19:35;;;;;;;52.55;35.58;;;;;;;;;;5097928;28;20024;-78
2022/10/10 03:22:01;;;;;;;49.95;34.83;;;;;;;;;;5096529;28;20059;-80
2022/10/10 03:24:28;;;;;;;46.60;34.97;;;;;;;;;;5097854;28;20080;-79
2022/10/10 03:26:54;;;;;;;49.00;36.35;;;;;;;;;;5095360;28;20477;-77
2022/10/10 03:29:20;;;;;;;58.67;36.80;;;;;;;;;;5076004;28;20067;-78
2022/10/10 03:31:46;;;;;;;57.95;38.05;;;;;;;;;;5077443;28;20035;-77
2022/10/10 03:34:12;;;;;;;55.95;35.85;;;;;;;;;;5077139;28;20028;-77
2022/10/10 03:36:38;;;;;;;50.47;35.55;;;;;;;;;;5075945;28;20095;-80
2022/10/10 03:39:06;;;;;;;52.70;35.33;;;;;;;;;;5077223;28;20055;-77
2022/10/10 03:41:32;;;;;;;49.47;34.70;;;;;;;;;;5075746;28;20021;-78
2022/10/10 03:43:58;;;;;;;50.92;34.65;;;;;;;;;;5075621;28;20021;-78
2022/10/10 03:46:25;;;;;;;46.90;33.65;;;;;;;;;;5077322;28;20059;-80
2022/10/10 03:48:51;;;;;;;45.13;30.50;;;;;;;;;;5076111;28;20024;-77
2022/10/10 03:51:17;;;;;;;40.75;32.95;;;;;;;;;;5076612;28;20021;-77
2022/10/10 03:53:43;;;;;;;50.20;34.00;;;;;;;;;;5076872;28;20020;-78
2022/10/10 03:56:09;;;;;;;40.10;30.95;;;;;;;;;;5075784;28;20464;-77
2022/10/10 03:58:35;;;;;;;50.53;33.80;;;;;;;;;;5075690;28;20056;-77
2022/10/10 04:01:02;;;;;;;47.30;32.35;;;;;;;;;;5075495;28;20024;-80
2022/10/10 04:03:28;;;;;;;49.00;35.30;;;;;;;;;;5075472;28;20029;-78
2022/10/10 04:05:55;;;;;;;46.35;33.25;;;;;;;;;;5076613;28;20067;-80
2022/10/10 04:08:21;;;;;;;47.35;33.83;;;;;;;;;;5076715;28;20466;-80
2022/10/10 04:10:48;;;;;;;50.65;31.52;;;;;;;;;;5076513;28;20081;-79
2022/10/10 04:13:14;;;;;;;45.22;32.75;;;;;;;;;;5075420;28;20070;-76
2022/10/10 04:15:40;;;;;;;49.97;33.50;;;;;;;;;;5075235;28;20032;-77
2022/10/10 04:18:06;;;;;;;47.30;33.40;;;;;;;;;;5076368;28;20422;-79
2022/10/10 04:20:32;;;;;;;49.00;33.45;;;;;;;;;;5075177;28;20078;-79
2022/10/10 04:22:58;;;;;;;48.00;32.67;;;;;;;;;;5075104;28;20035;-79
2022/10/10 04:25:25;;;;;;;46.42;32.20;;;;;;;;;;5074471;28;20435;-79
2022/10/10 04:27:51;;;;;;;50.40;35.45;;;;;;;;;;5075208;28;20044;-79
2022/10/10 04:30:18;;;;;;;58.70;36.92;;;;;;;;;;5076512;28;20028;-79
2022/10/10 04:32:44;;;;;;;45.05;34.25;;;;;;;;;;5074787;28;20119;-79
2022/10/10 04:35:10;;;;;;;49.25;35.35;;;;;;;;;;5074949;28;20029;-79
2022/10/10 04:37:36;;;;;;;45.33;34.80;;;;;;;;;;5075785;28;20025;-79
2022/10/10 04:40:03;;;;;;;56.20;32.67;;;;;;;;;;5074648;28;20070;-80
2022/10/10 04:42:29;;;;;;;48.83;34.10;;;;;;;;;;5075918;28;20036;-80
2022/10/10 04:44:55;;;;;;;62.83;34.95;;;;;;;;;;5074796;28;20024;-80
2022/10/10 04:47:21;;;;;;;49.75;35.17;;;;;;;;;;5074596;28;20021;-80
2022/10/10 04:49:48;;;;;;;51.38;35.10;;;;;;;;;;5076217;28;20024;-80
2022/10/10 04:52:14;;;;;;;44.72;32.50;;;;;;;;;;5074734;28;20107;-77
2022/10/10 04:54:40;;;;;;;48.28;34.03;;;;;;;;;;5074489;28;20024;-77
2022/10/10 04:57:06;;;;;;;53.28;35.83;;;;;;;;;;5075450;28;20431;-80
2022/10/10 04:59:32;;;;;;;43.97;34.10;;;;;;;;;;5074535;28;20012;-79
2022/10/10 05:01:58;;;;;;;51.28;34.47;;;;;;;;;;5074177;28;20058;-80
2022/10/10 05:04:25;;;;;;;45.78;33.97;;;;;;;;;;5074055;28;20039;-80
2022/10/10 05:06:51;;;;;;;44.72;34.20;;;;;;;;;;5075570;28;20021;-78
2022/10/10 05:09:17;;;;;;;55.50;34.55;;;;;;;;;;5074415;28;20025;-78
2022/10/10 05:11:43;;;;;;;49.22;34.35;;;;;;;;;;5074194;28;20244;-78
2022/10/10 05:14:09;;;;;;;49.63;36.42;;;;;;;;;;5074061;28;20017;-76
2022/10/10 05:16:36;;;;;;;56.55;37.30;;;;;;;;;;5075495;28;20134;-78
2022/10/10 05:19:03;;;;;;;49.40;37.35;;;;;;;;;;5073953;28;20045;-76
2022/10/10 05:21:30;;;;;;;49.25;36.67;;;;;;;;;;5074990;28;20066;-79
2022/10/10 05:23:56;;;;;;;48.58;35.42;;;;;;;;;;5073938;28;20024;-76
2022/10/10 05:26:22;;;;;;;51.90;36.10;;;;;;;;;;5073859;28;20409;-76
2022/10/10 05:28:49;;;;;;;54.72;41.65;;;;;;;;;;5073810;28;20021;-76
2022/10/10 05:31:15;;;;;;;59.00;40.10;;;;;;;;;;5073897;28;20069;-79
2022/10/10 05:33:41;;;;;;;57.17;40.92;;;;;;;;;;5073513;28;20028;-78
2022/10/10 05:36:11;;;;;;;62.10;42.85;;;;;;;;;;5072779;28;20017;-79
2022/10/10 05:38:38;;;;;;;57.80;41.25;;;;;;;;;;5073741;28;20114;-79
2022/10/10 05:41:04;;;;;;;58.72;40.65;;;;;;;;;;5074461;28;20028;-77
2022/10/10 05:43:31;;;;;;;81.75;50.67;;;;;;;;;;5072974;28;20139;-76
2022/10/10 05:45:57;;;;;;;66.22;45.05;;;;;;;;;;5072246;28;20407;-78
2022/10/10 05:48:23;;;;;;;82.20;57.92;;;;;;;;;;5074615;28;20056;-78
2022/10/10 05:50:55;;;;;;;64.50;47.58;;;;;;;;;;5074852;28;20036;-77
2022/10/10 05:53:22;;;;;;;53.47;43.05;;;;;;;;;;5073261;28;20085;-78
2022/10/10 05:55:48;;;;;;;60.28;42.28;;;;;;;;;;5073110;28;20028;-77
2022/10/10 05:58:14;;;;;;;57.22;40.22;;;;;;;;;;5073213;28;20107;-77
2022/10/10 06:00:41;;;;;;;51.25;37.75;;;;;;;;;;5073069;28;20025;-77
2022/10/10 06:03:11;;;;;;;50.25;38.22;;;;;;;;;;5073002;28;20460;-77
2022/10/10 06:05:37;;;;;;;52.65;39.42;;;;;;;;;;5073180;28;20032;-78
2022/10/10 06:08:03;;;;;;;52.65;36.67;;;;;;;;;;5074062;28;20486;-78
2022/10/10 06:10:29;;;;;;;47.58;36.25;;;;;;;;;;5082598;28;20035;-78
2022/10/10 06:12:56;;;;;;;47.45;36.83;;;;;;;;;;5093202;28;20387;-78
2022/10/10 06:15:22;;;;;;;48.67;35.15;;;;;;;;;;5092111;28;20020;-78
2022/10/10 06:17:48;;;;;;;55.03;36.90;;;;;;;;;;5092731;28;20491;-78
2022/10/10 06:20:14;;;;;;;55.50;39.67;;;;;;;;;;5093033;28;20103;-78
2022/10/10 06:22:40;;;;;;;59.38;40.50;;;;;;;;;;5094230;28;20024;-78
2022/10/10 06:25:08;;;;;;;52.15;37.03;;;;;;;;;;5092686;28;20557;-78
2022/10/10 06:27:34;;;;;;;55.78;37.90;;;;;;;;;;5094291;28;20058;-78
2022/10/10 06:30:00;;;;;;;46.70;34.67;;;;;;;;;;5094305;28;20020;-77
2022/10/10 06:32:26;;;;;;;45.38;34.22;;;;;;;;;;5092833;28;20028;-78
2022/10/10 06:34:52;;;;;;;46.15;35.90;;;;;;;;;;5092882;28;20052;-78
2022/10/10 06:37:18;;;;;;;44.08;36.25;;;;;;;;;;5092965;28;20438;-78
2022/10/10 06:39:44;;;;;;;47.42;37.97;;;;;;;;;;5092716;28;20027;-78
2022/10/10 06:42:11;;;;;;;55.53;38.30;;;;;;;;;;5092778;28;20103;-77
2022/10/10 06:44:37;;;;;;;50.70;39.22;;;;;;;;;;5093795;28;20045;-77
2022/10/10 06:47:03;;;;;;;49.72;38.80;;;;;;;;;;5092455;28;20028;-77
2022/10/10 06:49:29;;;;;;;48.72;39.92;;;;;;;;;;5092788;28;20452;-79
2022/10/10 06:51:55;;;;;;;51.00;36.78;;;;;;;;;;5092567;28;20119;-77
2022/10/10 06:54:21;;;;;;;48.17;37.15;;;;;;;;;;5094212;28;20523;-78
2022/10/10 06:56:47;;;;;;;47.53;39.38;;;;;;;;;;5093948;28;20024;-75
2022/10/10 06:59:13;;;;;;;49.45;38.95;;;;;;;;;;5092478;28;20024;-78
2022/10/10 07:01:39;;;;;;;53.60;41.30;;;;;;;;;;5092545;28;20028;-80
2022/10/10 07:04:06;;;;;;;59.10;38.78;;;;;;;;;;5094073;28;20024;-80
2022/10/10 07:06:32;;;;;;;50.70;41.58;;;;;;;;;;5093797;28;20073;-78
2022/10/10 07:08:58;;;;;;;51.28;41.95;;;;;;;;;;5092655;28;20052;-80
2022/10/10 07:11:24;;;;;;;50.85;40.75;;;;;;;;;;5092429;28;20078;-79
2022/10/10 07:13:52;;;;;;;46.25;39.05;;;;;;;;;;5093333;28;20521;-79
2022/10/10 07:16:18;;;;;;;48.88;38.17;;;;;;;;;;5092428;28;20369;-79
2022/10/10 07:18:45;;;;;;;45.63;38.38;;;;;;;;;;5092410;28;20056;-78
2022/10/10 07:21:11;;;;;;;48.60;38.78;;;;;;;;;;5092537;28;20143;-78
2022/10/10 07:23:38;;;;;;;49.95;40.45;;;;;;;;;;5093498;28;20024;-80
2022/10/10 07:26:05;;;;;;;50.83;40.10;;;;;;;;;;5092379;28;20119;-78
2022/10/10 07:28:32;;;;;;;42.33;37.13;;;;;;;;;;5092164;28;20027;-78
2022/10/10 07:30:59;;;;;;;48.78;38.10;;;;;;;;;;5092246;28;20028;-81
2022/10/10 07:33:25;;;;;;;45.80;39.30;;;;;;;;;;5093779;28;20024;-79
2022/10/10 07:35:53;;;;;;;48.15;37.53;;;;;;;;;;5093469;28;20070;-81
2022/10/10 07:38:20;;;;;;;50.30;38.80;;;;;;;;;;5093608;28;20012;-81
2022/10/10 07:40:46;;;;;;;46.35;38.53;;;;;;;;;;5092284;28;20021;-80
2022/10/10 07:43:12;;;;;;;44.17;37.47;;;;;;;;;;5092147;28;20506;-81
2022/10/10 07:45:38;;;;;;;52.90;43.85;;;;;;;;;;5092453;28;20035;-81
2022/10/10 07:48:05;;;;;;;58.45;46.47;;;;;;;;;;5092149;28;20040;-82
2022/10/10 07:50:31;;;;;;;53.10;41.30;;;;;;;;;;5091962;28;20021;-82
2022/10/10 07:52:57;;;;;;;50.55;41.05;;;;;;;;;;5092063;28;20028;-82
2022/10/10 07:55:23;;;;;;;45.35;40.30;;;;;;;;;;5091986;28;20472;-81
2022/10/10 07:57:50;;;;;;;47.22;41.05;;;;;;;;;;5092287;28;20486;-81
2022/10/10 08:00:16;;;;;;;47.03;41.88;;;;;;;;;;5094681;28;20020;-80
2022/10/10 08:02:42;;;;;;;53.92;44.88;;;;;;;;;;5095599;28;20028;-80
2022/10/10 08:05:08;;;;;;;50.42;41.40;;;;;;;;;;5095924;28;20073;-80
2022/10/10 08:07:34;;;;;;;46.38;41.33;;;;;;;;;;5097354;28;20084;-81
2022/10/10 08:10:01;;;;;;;49.30;41.83;;;;;;;;;;5095977;28;20028;-83
2022/10/10 08:12:27;;;;;;;48.15;42.65;;;;;;;;;;5095745;28;20039;-80
2022/10/10 08:14:53;;;;;;;53.70;41.50;;;;;;;;;;5095721;28;20020;-82
2022/10/10 08:17:20;;;;;;;45.97;41.00;;;;;;;;;;5096579;28;20056;-80
2022/10/10 08:19:46;;;;;;;51.45;42.67;;;;;;;;;;5095658;28;20372;-80
2022/10/10 08:22:12;;;;;;;55.70;44.28;;;;;;;;;;5095465;28;20081;-81
2022/10/10 08:24:38;;;;;;;58.78;44.15;;;;;;;;;;5094973;28;20028;-80
2022/10/10 08:27:04;;;;;;;52.90;44.50;;;;;;;;;;5096807;28;20024;-79
2022/10/10 08:29:32;;;;;;;50.30;41.42;;;;;;;;;;5095452;28;20016;-80
2022/10/10 08:31:58;;;;;;;50.65;42.13;;;;;;;;;;5112570;28;20008;-79
2022/10/10 08:34:24;;;;;;;50.53;42.95;;;;;;;;;;5121401;28;20020;-79
2022/10/10 08:36:50;;;;;;;49.60;43.08;;;;;;;;;;5120810;28;20039;-80
2022/10/10 08:39:16;;;;;;;48.08;42.50;;;358.80;2329.60;;;;;;5104545;28;20048;-80
2022/10/10 08:41:49;;;;;;;47.72;41.47;;;;;;;;;;5096261;28;21951;-80
2022/10/10 08:44:18;;;;;;;55.70;49.92;;;;;;;;;;5095464;28;20024;-79
2022/10/10 08:47:10;;;;;;;44.70;37.97;;;358.90;2329.60;;;;;;5095752;28;20024;-79
2022/10/10 08:49:46;;;;;;;44.63;39.28;;;359.00;2329.60;;;;;;5095419;28;20032;-79
2022/10/10 08:52:25;;;;;;;44.05;39.22;;;;;;;;;;5095234;28;20032;-81
2022/10/10 08:54:52;;;;;;;43.00;38.47;;;;;;;;;;5096255;28;20024;-80
2022/10/10 08:57:32;;;;;;;44.90;40.05;;;359.20;2329.60;;;;;;5094820;28;20024;-78
2022/10/10 09:00:24;;;;;;;48.47;40.97;;;359.00;2329.60;;;;;;5095702;28;20027;-81
2022/10/10 09:02:57;;;;;;;50.90;37.95;;;359.20;2329.60;;;;;;5096707;28;20035;-80
2022/10/10 09:05:48;;;;;;;43.55;38.78;;;359.10;2329.60;;;;;;5103034;28;20085;-80
2022/10/10 09:08:40;;;;;;;43.97;38.75;;;359.10;2329.60;;;;;;5105965;28;20039;-77
2022/10/10 09:11:39;;;;;;;46.00;40.05;;;359.30;2329.60;;;;;;5093671;28;20036;-82
2022/10/10 09:14:25;;;;;;;42.13;37.72;;;384.10;2329.60;;;;;;5075233;28;20071;-81
2022/10/10 09:17:15;;;;;;;41.70;37.13;;;384.20;2329.60;;;;;;5095942;28;20020;-81
2022/10/10 09:20:06;;;;;;;43.47;38.83;;;384.30;2329.60;;;;;;5095059;28;20066;-81
2022/10/10 09:22:35;;;;;;;53.47;45.45;;;;;;;;;;5094473;28;20373;-82
2022/10/10 09:25:03;;;;;;;53.38;44.42;;;384.70;2329.60;;;;;;5094384;28;20024;-81
2022/10/10 09:27:38;;;;;;;47.40;41.75;;;384.70;2329.60;;;;;;5094114;28;20030;-82
2022/10/10 09:30:05;;;;;;;55.58;45.88;;;384.80;2329.60;;;;;;5094219;28;20086;-82
2022/10/10 09:32:52;;;;;;;56.25;50.38;;;384.90;2329.60;;;;;;5094436;28;20463;-79
2022/10/10 09:35:18;;;;;;;59.92;52.33;;;;;;;;;;5094233;28;20152;-80
2022/10/10 09:37:45;;;;;;;64.50;55.95;;;;;;;;;;5093836;28;20086;-80
2022/10/10 09:40:14;;;;;;;61.83;51.40;;;;;;;;;;5095097;28;20107;-80
2022/10/10 09:42:43;;;;;;;61.92;52.17;;;410.30;2355.20;;;;;;5093979;28;20028;-81
2022/10/10 09:45:18;;;;;;;46.65;39.95;;;410.10;2355.20;;;;;;5093919;28;20364;-77
2022/10/10 09:47:45;;;;;;;40.35;36.03;;;410.00;2355.20;;;;;;5093787;28;20046;-78
2022/10/10 09:50:13;;;;;;;43.63;39.10;;;410.00;2355.20;;;;;;5094009;28;20465;-79
2022/10/10 09:52:40;;;;;;;52.03;42.67;;;410.10;2355.20;;;;;;5095265;28;20032;-78
2022/10/10 09:55:27;;;;;;;50.58;44.78;;;410.20;2355.20;;;;;;5093574;28;20477;-78
2022/10/10 09:57:55;;;;;;;54.17;45.50;;;435.20;2355.20;;;;;;5093678;28;20023;-79
2022/10/10 10:00:22;;;;;;;49.85;44.45;;;410.40;2355.20;;;;;;5093596;28;20124;-80
2022/10/10 10:02:49;;;;;;;54.00;43.85;;;;;;;;;;5093253;28;20423;-79
2022/10/10 10:05:34;;;;;;;50.15;44.85;;;435.30;2355.20;;;;;;5093466;28;20395;-79
2022/10/10 10:07:59;;;;;;;48.47;42.17;;;410.10;2355.20;;;;;;5093381;28;20017;-79
2022/10/10 10:10:29;;;;;;;48.42;43.22;;;435.20;2355.20;;;;;;5090430;28;20027;-78
2022/10/10 10:12:55;;;;;;;49.47;43.65;;;435.20;2355.20;;;;;;5093353;28;20071;-79
2022/10/10 10:15:25;;;;;;;50.92;44.25;;;435.20;2355.20;;;;;;5093524;28;20020;-81
2022/10/10 10:18:11;;;;;;;45.90;40.92;;;435.30;2355.20;;;;;;5095190;28;20388;-78
2022/10/10 10:20:45;;;;;;;48.45;42.90;;;435.30;2355.20;;;;;;5093044;28;20055;-80
2022/10/10 10:23:41;;;;;;;50.33;40.70;;;;;;;;;;5093598;28;20024;-79
2022/10/10 10:26:18;;;;;;;45.10;40.08;;;435.70;2355.20;;;;;;5084098;28;20155;-80
2022/10/10 10:28:45;;;;;;;53.30;43.72;;;;;;;;;;5094496;28;20460;-79
2022/10/10 10:31:23;;;;;;;54.83;43.13;;;435.80;2355.20;;;;;;5093118;28;20031;-80
2022/10/10 10:34:06;;;;;;;49.85;40.70;;;435.90;2355.20;;;;;;5094832;28;20071;-80
2022/10/10 10:36:45;;;;;;;51.20;43.15;;;435.80;2355.20;;;;;;5093280;28;20047;-79
2022/10/10 10:39:10;;;;;;;50.08;42.25;;;435.80;2355.20;;;;;;5095038;28;20108;-76
2022/10/10 10:41:47;;;;;;;44.33;39.40;;;436.00;2355.20;;;;;;5092294;28;20056;-76
2022/10/10 10:44:28;;;;;;;44.38;36.97;;;435.90;2355.20;;;;;;5092217;28;20024;-78
2022/10/10 10:47:31;;;;;;;47.55;39.83;;;435.90;2355.20;;;;;;5093678;28;20052;-76
2022/10/10 10:50:09;;;;;;;49.67;38.53;;;435.80;2355.20;;;;;;5094276;28;20099;-79
2022/10/10 10:52:49;;;;;;;45.95;39.67;;;435.90;2355.20;;;;;;5092630;28;20372;-77
2022/10/10 10:55:44;;;;;;;47.05;38.65;;;435.90;2355.20;;;;;;5092603;28;20442;-79
2022/10/10 10:58:30;;;;;;;59.47;41.42;;;435.90;2355.20;;;;;;5092519;28;20040;-78
2022/10/10 11:01:18;;;;;;;51.15;39.35;;;436.00;2355.20;;;;;;5092703;28;20380;-78
2022/10/10 11:03:50;;;;;;;49.28;40.05;;;436.00;2355.20;;;;;;5092431;28;20054;-76
2022/10/10 11:06:21;;;;;;;50.47;40.73;;;436.10;2355.20;;;;;;5092501;28;20028;-76
2022/10/10 11:08:53;;;;;;;46.30;39.75;;;436.10;2355.20;;;;;;5092409;28;20085;-77
2022/10/10 11:11:27;;;;;;;51.38;39.28;;;460.90;2380.80;;;;;;5092653;28;20109;-79
2022/10/10 11:14:08;;;;;;;51.40;43.28;;;460.80;2380.80;;;;;;5092526;28;20165;-78
2022/10/10 11:16:49;;;;;;;58.35;51.33;;;436.10;2355.20;;;;;;5093816;28;20024;-77
2022/10/10 11:19:27;;;;;;;46.00;38.20;;;460.80;2380.80;;;;;;5093360;28;20055;-78
2022/10/10 11:21:59;;;;;;;54.10;42.50;;;460.80;2380.80;;;;;;5094145;28;20028;-79
2022/10/10 11:24:32;;;;;;;47.67;37.55;;;461.00;2380.80;;;;;;5093879;28;20028;-77
2022/10/10 11:27:04;;;;;;;47.75;39.05;;;460.90;2380.80;;;;;;5098523;28;20063;-76
2022/10/10 11:29:36;;;;;;;45.42;37.70;;;461.00;2380.80;;;;;;5097864;28;20044;-76
2022/10/10 11:32:16;;;;;;;42.78;35.75;;;461.10;2380.80;;;;;;5099735;28;20032;-76
2022/10/10 11:35:20;;;;;;;39.85;35.65;;;461.20;2380.80;;;;;;5116001;28;20024;-76
2022/10/10 11:37:53;;;;;;;44.58;39.58;;;461.50;2380.80;;;;;;5108784;28;20383;-75
2022/10/10 11:40:28;;;;;;;44.10;37.45;;;;;;;;;;5103313;28;20113;-76
2022/10/10 11:42:59;;;;;;;47.28;39.53;;;;;;;;;;5099514;28;20129;-78
2022/10/10 11:45:42;;;;;;;38.53;34.45;;;486.80;2380.80;;;;;;5098421;28;20152;-78
2022/10/10 11:48:12;;;;;;;41.33;34.15;;;;;;;;;;5097828;28;20024;-79
2022/10/10 11:50:42;;;;;;;40.92;34.30;;;512.30;2380.80;;;;;;5096090;28;20059;-77
2022/10/10 11:53:08;;;;;;;39.75;33.75;;;;;;;;;;5096088;28;20028;-78
2022/10/10 11:55:56;;;;;;;38.83;33.05;;;;;;;;;;5096228;28;20027;-79
2022/10/10 11:58:41;;;;;;;36.35;32.42;;;;;;;;;;5098109;28;20024;-77
2022/10/10 12:01:21;;;;;;;39.70;28.98;;;538.00;2406.40;;;;;;5095646;28;20103;-78
2022/10/10 12:03:50;;;;;;;32.05;26.33;;;537.90;2406.40;;;;;;5095051;28;20036;-79
2022/10/10 12:06:40;;;;;;;36.15;28.02;;;538.00;2406.40;;;;;;5095355;28;20070;-77
2022/10/10 12:09:17;;;;;;;31.23;22.85;;;538.30;2406.40;;;;;;5095794;28;20024;-76
2022/10/10 12:11:45;;;;;;;22.85;19.58;;;;;;;;;;5095707;28;20031;-78
2022/10/10 12:14:16;;;;;;;23.30;20.90;;;;;;;;;;5095383;28;20016;-77
2022/10/10 12:16:43;;;;;;;28.70;20.75;;;;;;;;;;5096746;28;20024;-77
2022/10/10 12:19:20;;;;;;;24.20;19.40;;;;;;;;;;5095299;28;20059;-78
2022/10/10 12:22:00;;;;;;;24.58;20.40;;;;;;;;;;5095521;28;20020;-76
2022/10/10 12:24:27;;;;;;;23.30;19.10;;;;;;;;;;5095680;28;20145;-77
2022/10/10 12:26:56;;;;;;;20.38;18.17;;;;;;;;;;5095616;28;20027;-77
2022/10/10 12:29:41;;;;;;;24.13;20.25;;;;;;;;;;5095162;28;20027;-76
2022/10/10 12:32:13;;;;;;;21.50;19.25;;;;;;;;;;5095284;28;20028;-76
2022/10/10 12:34:40;;;;;;;19.92;17.75;;;;;;;;;;5096552;28;20115;-78
2022/10/10 12:37:11;;;;;;;24.02;20.42;;;;;;;;;;5096362;28;20479;-77
2022/10/10 12:39:38;;;;;;;22.33;18.00;;;;;;;;;;5096416;28;20024;-78
2022/10/10 12:42:24;;;;;;;23.88;20.52;;;;;;;;;;5089703;28;20281;-78
2022/10/10 12:44:50;;;;;;;21.40;19.00;;;;;;;;;;5092425;28;20021;-79
2022/10/10 12:47:16;;;;;;;30.17;22.23;;;;;;;;;;5082553;28;20073;-79
2022/10/10 12:49:49;;;;;;;29.23;22.08;;;;;;;;;;5083700;28;20115;-77
2022/10/10 12:52:22;;;;;;;25.33;21.35;;;;;;;;;;5089317;28;20028;-79
2022/10/10 12:54:49;;;;;;;20.30;18.13;;;;;;;;;;5077957;28;20087;-76
2022/10/10 12:57:27;;;;;;;23.27;19.98;;;;;;;;;;5087691;28;20028;-77
2022/10/10 12:59:53;;;;;;;20.83;18.75;;;;;;;;;;5087099;28;20468;-76
2022/10/10 13:02:26;;;;;;;22.63;20.33;;;;;;;;;;5078571;28;20060;-77
2022/10/10 13:04:54;;;;;;;26.75;19.77;;;;;;;;;;5078495;28;20020;-77
2022/10/10 13:07:21;;;;;;;25.92;20.17;;;;;;;;;;5094187;28;20031;-77
2022/10/10 13:09:49;;;;;;;34.83;31.55;;;;;;;;;;5084315;28;20021;-76
2022/10/10 13:12:22;;;;;;;22.90;19.85;;;;;;;;;;5090302;28;20487;-76
2022/10/10 13:14:49;;;;;;;24.63;21.42;;;;;;;;;;5094359;28;20020;-78
2022/10/10 13:17:38;;;;;;;24.63;20.55;;;;;;;;;;5093855;28;20054;-79
2022/10/10 13:20:05;;;;;;;24.48;21.52;;;614.70;2432.00;;;;;;5086110;28;20032;-78
2022/10/10 13:22:34;;;;;;;24.25;21.65;;;614.80;2432.00;;;;;;5094044;28;20043;-77
2022/10/10 13:25:04;;;;;;;27.23;21.67;;;;;;;;;;5094130;28;20032;-76
2022/10/10 13:27:33;;;;;;;28.45;25.38;;;;;;;;;;5095461;28;20016;-77
2022/10/10 13:30:00;;;;;;;31.88;23.77;;;;;;;;;;5095950;28;20062;-77
2022/10/10 13:32:28;;;;;;;28.40;24.13;;;;;;;;;;5093742;28;20020;-77
2022/10/10 13:34:56;;;;;;;27.40;24.48;;;;;;;;;;5094116;28;20020;-78
2022/10/10 13:37:22;;;;;;;25.25;21.38;;;;;;;;;;5096313;28;20027;-79
2022/10/10 13:39:49;;;;;;;27.30;24.40;;;;;;;;;;5094139;28;20019;-78
2022/10/10 13:42:27;;;;;;;27.73;22.83;;;;;;;;;;5093851;28;20352;-76